Time;durP1;ratioP1;P1;durP2;ratioP2;P2;SDS_P1;SDS_P2;PMS_P1;PMS_P2;Temp;Humidity;BMP_temperature;BMP_pressure;BME280_temperature;BME280_humidity;BME280_pressure;Samples;Min_cycle;Max_cycle;Signal;HPM_P1;HPM_P2
2023/10/08 00:01:16;;;;;;;11.80;6.90;;;;;;;;;;5089691;28;20024;-61
2023/10/08 00:03:48;;;;;;;12.35;7.43;;;;;;;;;;5090163;28;20035;-62
2023/10/08 00:06:14;;;;;;;12.35;7.22;;;;;;;;;;5072210;28;20119;-62
2023/10/08 00:08:40;;;;;;;13.45;7.82;;;;;;;;;;5090101;28;20028;-62
2023/10/08 00:11:07;;;;;;;13.80;7.95;;;;;;;;;;5089162;28;20028;-62
2023/10/08 00:13:39;;;;;;;12.50;7.25;;;;;;;;;;5090034;28;20027;-62
2023/10/08 00:16:09;;;;;;;13.40;7.50;;;;;;;;;;5072164;28;20048;-62
2023/10/08 00:18:37;;;;;;;13.32;7.82;;;;;;;;;;5072022;28;20068;-62
2023/10/08 00:23:41;;;;;;;12.13;7.15;;;;;;;;;;5094171;28;20027;-62
2023/10/08 00:26:08;;;;;;;12.40;7.40;;;;;;;;;;5094073;28;20039;-62
2023/10/08 00:28:34;;;;;;;12.98;7.88;;;;;;;;;;5094296;28;20500;-61
2023/10/08 00:31:12;;;;;;;12.02;7.13;;;;;;;;;;5093364;28;20053;-62
2023/10/08 00:33:39;;;;;;;13.43;7.57;;;;;;;;;;5075803;28;20046;-62
2023/10/08 00:36:17;;;;;;;12.23;7.10;;;;;;;;;;5075797;28;20688;-63
2023/10/08 00:38:59;;;;;;;20.58;7.30;;;;;;;;;;5094093;28;20553;-62
2023/10/08 00:41:30;;;;;;;12.85;7.82;;;;;;;;;;5092903;28;20032;-62
2023/10/08 00:43:59;;;;;;;12.07;7.00;;;;;;;;;;5093751;28;20550;-62
2023/10/08 00:46:32;;;;;;;;;;;;;;;;;;5094290;28;20020;-62
2023/10/08 00:49:11;;;;;;;12.93;8.52;;;;;;;;;;5093766;28;19910;-62
2023/10/08 00:51:40;;;;;;;11.85;6.97;;;;;;;;;;5092989;28;20466;-62
2023/10/08 00:54:17;;;;;;;12.40;7.20;;;;;;;;;;5075519;28;20377;-63
2023/10/08 00:56:57;;;;;;;12.77;8.23;;;;;;;;;;5093486;28;20178;-63
2023/10/08 00:59:30;;;;;;;11.90;7.10;;;;;;;;;;5093470;28;20031;-63
2023/10/08 01:02:05;;;;;;;14.68;8.30;;;;;;;;;;5092969;28;20032;-62
2023/10/08 01:04:33;;;;;;;11.75;7.00;;;;;;;;;;5093308;28;20052;-62
2023/10/08 01:07:01;;;;;;;11.65;6.78;;;;;;;;;;5093364;28;20032;-63
2023/10/08 01:09:35;;;;;;;12.13;7.57;;;;;;;;;;5093155;28;20017;-63
2023/10/08 01:12:09;;;;;;;11.88;6.90;;;;;;;;;;5074673;28;20028;-62
2023/10/08 01:14:35;;;;;;;15.63;7.40;;;;;;;;;;5093233;28;20016;-63
2023/10/08 01:17:01;;;;;;;11.70;6.90;;;;;;;;;;5074912;28;20016;-63
2023/10/08 01:19:28;;;;;;;14.30;8.57;;;;;;;;;;5074820;28;20064;-61
2023/10/08 01:21:54;;;;;;;11.60;6.80;;;;;;;;;;5092630;28;20508;-63
2023/10/08 01:24:24;;;;;;;12.02;7.47;;;;;;;;;;5074837;28;20028;-63
2023/10/08 01:26:50;;;;;;;11.90;7.03;;;;;;;;;;5074720;28;20031;-63
2023/10/08 01:29:21;;;;;;;11.98;6.90;;;;;;;;;;5092719;28;20035;-62
2023/10/08 01:31:53;;;;;;;13.68;8.45;;;;;;;;;;5091840;28;20043;-63
2023/10/08 01:34:26;;;;;;;11.95;7.10;;;;;;;;;;5092916;28;20056;-62
2023/10/08 01:36:52;;;;;;;11.82;7.13;;;;;;;;;;5074994;28;20021;-62
2023/10/08 01:39:19;;;;;;;12.05;7.13;;;;;;;;;;5092742;28;20062;-63
2023/10/08 01:41:46;;;;;;;11.85;7.03;;;;;;;;;;5092231;28;20024;-62
2023/10/08 01:44:12;;;;;;;13.07;7.90;;;;;;;;;;5074698;28;20103;-63
2023/10/08 01:46:40;;;;;;;14.02;9.55;;;;;;;;;;5074339;28;20020;-63
2023/10/08 01:49:14;;;;;;;12.67;7.87;;;;;;;;;;5092382;28;20103;-63
2023/10/08 01:51:46;;;;;;;11.55;7.22;;;;;;;;;;5091782;28;20482;-63
2023/10/08 01:54:14;;;;;;;37.40;8.13;;;;;;;;;;5092439;28;20054;-63
2023/10/08 01:56:41;;;;;;;12.18;7.20;;;;;;;;;;5074123;28;20016;-63
2023/10/08 01:59:08;;;;;;;13.15;8.52;;;;;;;;;;5074263;28;20044;-63
2023/10/08 02:01:35;;;;;;;14.18;9.05;;;;;;;;;;5091406;28;20034;-63
2023/10/08 02:04:01;;;;;;;12.93;7.68;;;;;;;;;;5074019;28;20020;-63
2023/10/08 02:06:27;;;;;;;14.13;9.23;;;;;;;;;;5092268;28;20094;-63
2023/10/08 02:08:53;;;;;;;13.80;9.20;;;;;;;;;;5092150;28;20456;-62
2023/10/08 02:11:20;;;;;;;13.82;9.30;;;;;;;;;;5091305;28;20020;-63
2023/10/08 02:13:46;;;;;;;13.80;9.30;;;;;;;;;;5073662;28;20024;-63
2023/10/08 02:16:18;;;;;;;14.45;10.40;;;;;;;;;;5091945;28;20538;-63
2023/10/08 02:18:44;;;;;;;14.30;10.10;;;;;;;;;;5091978;28;20024;-63
2023/10/08 02:21:10;;;;;;;14.00;9.57;;;;;;;;;;5091014;28;20087;-63
2023/10/08 02:23:37;;;;;;;22.98;10.88;;;;;;;;;;5091876;28;20028;-63
2023/10/08 02:26:03;;;;;;;21.48;11.32;;;;;;;;;;5091452;28;20073;-62
2023/10/08 02:28:29;;;;;;;16.55;12.52;;;;;;;;;;5073648;28;20474;-62
2023/10/08 02:30:55;;;;;;;16.45;12.68;;;;;;;;;;5073039;28;20027;-62
2023/10/08 02:33:21;;;;;;;15.43;11.55;;;;;;;;;;5091991;28;20024;-62
2023/10/08 02:35:49;;;;;;;16.65;13.60;;;;;;;;;;5091843;28;20019;-63
2023/10/08 02:38:17;;;;;;;15.88;13.40;;;;;;;;;;5091804;28;20027;-63
2023/10/08 02:40:50;;;;;;;16.07;13.20;;;;;;;;;;5072559;28;20059;-63
2023/10/08 02:43:17;;;;;;;16.80;14.68;;;;;;;;;;5090385;28;20481;-62
2023/10/08 02:45:49;;;;;;;15.30;13.48;;;;;;;;;;5073169;28;20085;-63
2023/10/08 02:48:16;;;;;;;16.15;14.20;;;;;;;;;;5091228;28;20103;-63
2023/10/08 02:50:48;;;;;;;15.80;14.05;;;;;;;;;;5090622;28;20019;-63
2023/10/08 02:53:25;;;;;;;15.57;13.88;;;;;;;;;;5091132;28;20028;-62
2023/10/08 02:55:52;;;;;;;15.33;13.33;;;;;;;;;;5073214;28;20059;-63
2023/10/08 02:58:20;;;;;;;15.10;12.70;;;;;;;;;;5091342;28;20270;-63
2023/10/08 03:00:47;;;;;;;15.20;12.90;;;;;;;;;;5073153;28;20378;-62
2023/10/08 03:03:18;;;;;;;15.20;12.98;;;;;;;;;;5076572;28;20060;-63
2023/10/08 03:05:47;;;;;;;15.20;12.98;;;;;;;;;;5090949;28;20400;-63
2023/10/08 03:08:20;;;;;;;15.20;13.07;;;;;;;;;;5090780;28;20035;-63
2023/10/08 03:10:56;;;;;;;15.23;13.15;;;;;;;;;;5089881;28;20577;-63
2023/10/08 03:13:23;;;;;;;15.40;13.40;;;;;;;;;;5090666;28;20024;-63
2023/10/08 03:18:36;;;;;;;15.40;13.43;;;;;;;;;;5090848;28;20028;-63
2023/10/08 03:21:19;;;;;;;15.30;13.27;;;;;;;;;;5089928;28;20040;-63
2023/10/08 03:23:47;;;;;;;15.40;13.45;;;;;;;;;;5072414;28;20024;-63
2023/10/08 03:29:15;;;;;;;15.40;13.50;;;;;;;;;;5008020;28;20038;-63
2023/10/08 03:34:15;;;;;;;15.05;12.70;;;;;;;;;;5090441;28;20028;-63
2023/10/08 03:36:44;;;;;;;15.20;13.15;;;;;;;;;;5072406;28;20082;-61
2023/10/08 03:39:18;;;;;;;15.30;13.20;;;;;;;;;;5090651;28;20021;-62
2023/10/08 03:41:58;;;;;;;15.25;13.05;;;;;;;;;;5089972;28;20028;-63
2023/10/08 03:44:24;;;;;;;15.23;13.05;;;;;;;;;;5090361;28;20020;-62
2023/10/08 03:46:52;;;;;;;15.20;12.88;;;;;;;;;;5072347;28;20035;-63
2023/10/08 03:51:51;;;;;;;15.20;12.90;;;;;;;;;;5089658;28;20024;-62
2023/10/08 03:54:18;;;;;;;15.20;12.85;;;;;;;;;;5089950;28;20384;-63
2023/10/08 03:56:49;;;;;;;15.20;13.00;;;;;;;;;;5090121;28;20407;-63
2023/10/08 03:59:49;;;;;;;15.30;13.18;;;;;;;;;;5090176;28;20406;-63
2023/10/08 04:02:15;;;;;;;15.30;13.10;;;;;;;;;;5085569;28;20494;-62
2023/10/08 04:04:51;;;;;;;15.30;13.40;;;;;;;;;;5090120;28;20020;-62
2023/10/08 04:12:52;;;;;;;15.05;12.68;;;;;;;;;;5058504;28;20016;-62
2023/10/08 04:15:19;;;;;;;15.32;12.93;;;;;;;;;;5071727;28;20161;-62
2023/10/08 04:17:50;;;;;;;15.40;13.20;;;;;;;;;;5071834;28;20028;-62
2023/10/08 04:20:38;;;;;;;15.20;12.93;;;;;;;;;;5089030;28;20017;-62
2023/10/08 04:23:20;;;;;;;15.30;13.13;;;;;;;;;;5090182;28;20099;-61
2023/10/08 04:25:53;;;;;;;15.40;13.40;;;;;;;;;;5089935;28;20185;-62
2023/10/08 04:28:20;;;;;;;15.40;13.20;;;;;;;;;;5089793;28;20024;-62
2023/10/08 04:30:47;;;;;;;15.20;12.98;;;;;;;;;;5088907;28;20046;-62
2023/10/08 04:33:14;;;;;;;15.25;13.10;;;;;;;;;;5089975;28;20420;-62
2023/10/08 04:36:01;;;;;;;15.30;13.00;;;;;;;;;;5071640;28;20027;-62
2023/10/08 04:38:28;;;;;;;15.13;12.82;;;;;;;;;;5089722;28;20095;-62
2023/10/08 04:40:54;;;;;;;15.10;12.68;;;;;;;;;;5088847;28;20028;-61
2023/10/08 04:43:27;;;;;;;15.20;12.93;;;;;;;;;;5089552;28;20061;-62
2023/10/08 04:46:04;;;;;;;15.45;13.10;;;;;;;;;;5089864;28;20026;-62
2023/10/08 04:48:32;;;;;;;15.10;12.68;;;;;;;;;;5089704;28;20029;-62
2023/10/08 04:50:59;;;;;;;15.25;12.85;;;;;;;;;;5088758;28;20039;-61
2023/10/08 04:53:40;;;;;;;15.13;12.73;;;;;;;;;;5089533;28;20431;-62
2023/10/08 04:56:13;;;;;;;15.30;13.25;;;;;;;;;;5071636;28;20016;-62
2023/10/08 04:58:40;;;;;;;15.30;13.05;;;;;;;;;;5071495;28;20027;-62
2023/10/08 05:01:38;;;;;;;15.10;12.85;;;;;;;;;;5070737;28;20109;-62
2023/10/08 05:09:10;;;;;;;15.30;13.10;;;;;;;;;;5093376;28;20105;-62
2023/10/08 05:17:09;;;;;;;15.10;12.65;;;;;;;;;;5093133;28;20039;-62
2023/10/08 05:30:16;;;;;;;15.30;12.40;;;;;;;;;;5092203;28;20028;-62
2023/10/08 05:33:06;;;;;;;14.90;12.15;;;;;;;;;;5093004;28;20017;-63
2023/10/08 05:38:23;;;;;;;15.20;12.90;;;;;;;;;;5091709;28;20028;-62
2023/10/08 06:02:48;;;;;;;15.48;13.43;;;;;;;;;;5091891;28;20028;-63
2023/10/08 06:05:20;;;;;;;15.50;13.77;;;;;;;;;;5092370;28;20019;-62
2023/10/08 06:13:09;;;;;;;15.40;13.60;;;;;;;;;;5091907;28;20062;-63
2023/10/08 06:18:28;;;;;;;15.32;13.27;;;;;;;;;;5070307;28;20025;-62
2023/10/08 06:20:55;;;;;;;15.40;13.40;;;;;;;;;;5070797;28;20129;-63
2023/10/08 06:23:22;;;;;;;15.23;13.18;;;;;;;;;;5075982;28;20371;-63
2023/10/08 06:25:54;;;;;;;15.40;13.48;;;;;;;;;;5091725;28;20115;-63
2023/10/08 06:28:21;;;;;;;15.40;13.48;;;;;;;;;;5091776;28;20097;-63
2023/10/08 06:30:47;;;;;;;15.38;13.45;;;;;;;;;;5090901;28;20053;-63
2023/10/08 06:33:14;;;;;;;18.42;15.05;;;;;;;;;;5091627;28;20044;-63
2023/10/08 06:36:01;;;;;;;15.40;13.43;;;;;;;;;;5091432;28;20016;-62
2023/10/08 06:38:30;;;;;;;15.40;13.43;;;;;;;;;;5091513;28;20482;-64
2023/10/08 06:40:59;;;;;;;15.30;13.27;;;;;;;;;;5081684;28;20043;-63
2023/10/08 06:43:26;;;;;;;15.30;13.35;;;;;;;;;;5071217;28;20025;-63
2023/10/08 06:45:52;;;;;;;15.40;13.57;;;;;;;;;;5071165;28;20082;-62
2023/10/08 06:48:25;;;;;;;15.35;13.38;;;;;;;;;;5071189;28;20082;-62
2023/10/08 06:50:56;;;;;;;15.40;13.48;;;;;;;;;;5070591;28;20031;-63
2023/10/08 06:53:23;;;;;;;15.50;13.55;;;;;;;;;;5071045;28;20025;-63
2023/10/08 06:55:56;;;;;;;15.40;13.40;;;;;;;;;;5071012;28;20096;-62
2023/10/08 06:58:23;;;;;;;15.60;13.80;;;;;;;;;;5070849;28;20067;-64
2023/10/08 07:00:49;;;;;;;15.40;13.32;;;;;;;;;;5070387;28;20031;-63
2023/10/08 07:03:15;;;;;;;15.40;13.40;;;;;;;;;;5070561;28;20040;-62
2023/10/08 07:05:44;;;;;;;19.08;14.05;;;;;;;;;;5070835;28;20025;-63
2023/10/08 07:08:13;;;;;;;15.50;13.80;;;;;;;;;;5084122;28;20016;-62
2023/10/08 07:10:39;;;;;;;;;;;;;;;;;;5072840;28;20488;-62
2023/10/08 07:13:07;;;;;;;15.90;13.52;;;;;;;;;;5090863;28;19949;-63
2023/10/08 07:15:38;;;;;;;15.50;13.57;;;;;;;;;;5090744;28;20067;-62
2023/10/08 07:18:12;;;;;;;15.48;13.55;;;;;;;;;;5090910;28;20008;-63
2023/10/08 07:20:39;;;;;;;15.30;13.18;;;;;;;;;;5090058;28;20086;-63
2023/10/08 07:23:24;;;;;;;15.30;13.23;;;;;;;;;;5090848;28;20047;-63
2023/10/08 07:26:14;;;;;;;15.38;13.25;;;;;;;;;;5072681;28;20020;-62
2023/10/08 07:28:40;;;;;;;15.38;13.27;;;;;;;;;;5090629;28;20390;-63
2023/10/08 07:31:16;;;;;;;15.50;13.60;;;;;;;;;;5089895;28;20028;-63
2023/10/08 07:33:47;;;;;;;15.50;13.70;;;;;;;;;;5090626;28;20020;-63
2023/10/08 07:36:18;;;;;;;15.50;13.55;;;;;;;;;;5090505;28;20084;-64
2023/10/08 07:38:44;;;;;;;15.90;14.20;;;;;;;;;;5090526;28;20375;-63
2023/10/08 07:41:12;;;;;;;16.10;14.40;;;;;;;;;;5085101;28;20072;-63
2023/10/08 07:43:39;;;;;;;15.80;14.10;;;;;;;;;;5070052;28;20111;-64
2023/10/08 07:46:05;;;;;;;16.58;14.77;;;;;;;;;;5070240;28;20039;-63
2023/10/08 07:48:31;;;;;;;15.68;13.98;;;;;;;;;;5070078;28;20418;-63
2023/10/08 07:50:58;;;;;;;15.50;13.60;;;;;;;;;;5069186;28;20092;-63
2023/10/08 07:53:25;;;;;;;15.88;14.18;;;;;;;;;;5070041;28;20394;-61
2023/10/08 07:55:52;;;;;;;15.68;13.98;;;;;;;;;;5070091;28;20024;-56
2023/10/08 07:58:18;;;;;;;15.60;13.80;;;;;;;;;;5070234;28;20103;-55
2023/10/08 08:00:54;;;;;;;15.50;13.77;;;;;;;;;;5069261;28;20099;-58
2023/10/08 08:03:21;;;;;;;15.50;13.57;;;;;;;;;;5069905;28;20024;-58
2023/10/08 08:05:52;;;;;;;15.45;13.55;;;;;;;;;;5051608;28;20463;-56
2023/10/08 08:08:18;;;;;;;15.50;13.73;;;;;;;;;;5074533;28;20024;-57
2023/10/08 08:10:45;;;;;;;15.75;14.05;;;;;;;;;;5071006;28;20554;-56
2023/10/08 08:13:12;;;;;;;17.58;13.60;;;;;;;;;;5090043;28;20035;-58
2023/10/08 08:15:42;;;;;;;15.30;13.18;;;;;;;;;;5089888;28;20024;-58
2023/10/08 08:18:18;;;;;;;15.40;13.30;;;;;;;;;;5089806;28;20059;-58
2023/10/08 08:20:44;;;;;;;15.10;12.68;;;;;;;;;;5089189;28;20111;-59
2023/10/08 08:23:11;;;;;;;16.85;14.65;;;;;;;;;;5089790;28;20545;-59
2023/10/08 08:28:24;;;;;;;15.07;12.55;;;;;;;;;;5090079;28;20035;-57
2023/10/08 08:30:55;;;;;;;15.20;12.70;;;;;;;;;;5083312;28;20027;-58
2023/10/08 08:33:24;;;;;;;14.88;12.00;;;;;;;;;;5078333;28;20099;-60
2023/10/08 08:36:05;;;;;;;14.80;11.98;;;;;;;;;;5060681;28;20030;-57
2023/10/08 08:38:32;;;;;;;14.70;11.60;;;;;;;;;;5081706;28;20103;-57
2023/10/08 08:41:07;;;;;;;17.98;12.55;;;;;;;;;;5057244;28;20374;-56
2023/10/08 08:43:37;;;;;;;15.00;12.10;;;;;;;;;;5089209;28;20039;-55
2023/10/08 08:46:06;;;;;;;14.80;11.75;;;;;;;;;;5083867;28;20025;-52
2023/10/08 08:48:34;;;;;;;14.82;11.52;;;;;;;;;;5078737;28;20032;-56
2023/10/08 08:51:01;;;;;;;14.60;11.35;;;;;;;;;;5081907;28;20029;-56
2023/10/08 08:53:27;;;;;;;14.40;11.00;;;;;;;;;;5081693;28;20024;-57
2023/10/08 08:55:54;;;;;;;14.50;11.00;;;;;;;;;;5083639;28;20047;-56
2023/10/08 08:58:21;;;;;;;16.15;12.05;;;;;;;;;;5086337;28;20025;-60
2023/10/08 09:00:47;;;;;;;14.48;11.07;;;;;;;;;;5081731;28;20117;-59
2023/10/08 09:03:14;;;;;;;14.52;11.20;;;;;;;;;;5083619;28;20103;-55
2023/10/08 09:05:42;;;;;;;15.15;11.82;;;;;;;;;;5081616;28;20027;-60
2023/10/08 09:08:09;;;;;;;14.52;11.10;;;;;;;;;;5082626;28;20138;-56
2023/10/08 09:10:51;;;;;;;14.50;11.10;;;;;;;;;;5082784;28;20024;-59
2023/10/08 09:13:20;;;;;;;14.50;11.00;;;;;;;;;;5065622;28;20103;-56
2023/10/08 09:15:47;;;;;;;15.02;11.30;;;;;;;;;;5065493;28;20111;-56
2023/10/08 09:18:14;;;;;;;14.50;11.00;;;;;;;;;;5083419;28;20017;-57
2023/10/08 09:20:43;;;;;;;14.38;10.80;;;;;;;;;;5080637;28;20159;-56
2023/10/08 09:23:17;;;;;;;17.80;12.77;;;;;;;;;;5081987;28;20038;-58
2023/10/08 09:25:49;;;;;;;14.63;11.15;;;;;;;;;;5081960;28;20378;-59
2023/10/08 09:28:16;;;;;;;14.35;10.98;;;;;;;;;;5081278;28;20060;-56
2023/10/08 09:30:44;;;;;;;14.25;10.38;;;;;;;;;;5082051;28;20423;-58
2023/10/08 09:33:12;;;;;;;14.30;10.60;;;;;;;;;;5082559;28;20055;-55
2023/10/08 09:35:38;;;;;;;14.15;10.20;;;;;;;;;;5063020;28;20025;-58
2023/10/08 09:38:05;;;;;;;14.60;11.10;;;;;;;;;;5079957;28;20016;-58
2023/10/08 09:40:31;;;;;;;14.10;10.20;;;;;;;;;;5072005;28;20040;-53
2023/10/08 09:42:57;;;;;;;14.20;10.27;;;;;;;;;;5054610;28;20390;-54
2023/10/08 09:45:23;;;;;;;14.25;10.38;;;;;;;;;;5072379;28;20081;-57
2023/10/08 09:47:55;;;;;;;14.13;10.27;;;;;;;;;;5072410;28;20099;-56
2023/10/08 09:50:26;;;;;;;14.20;10.40;;;;;;;;;;5071560;28;20077;-56
2023/10/08 09:52:56;;;;;;;14.20;10.38;;;;;;;;;;5071923;28;20116;-60
2023/10/08 09:55:22;;;;;;;14.35;10.75;;;;;;;;;;5052156;28;20513;-58
2023/10/08 09:57:51;;;;;;;14.10;10.20;;;;;;;;;;5071311;28;20025;-56
2023/10/08 10:00:29;;;;;;;14.40;10.80;;;;;;;;;;5070889;28;20040;-57
2023/10/08 10:02:55;;;;;;;16.73;12.18;;;;;;;;;;5071660;28;20032;-52
2023/10/08 10:05:21;;;;;;;14.10;10.15;;;;;;;;;;5071493;28;20028;-60
2023/10/08 10:07:50;;;;;;;14.00;9.65;;;;;;;;;;5072459;28;20025;-59
2023/10/08 10:10:26;;;;;;;14.00;9.88;;;;;;;;;;5091374;28;20059;-55
2023/10/08 10:12:52;;;;;;;13.93;9.60;;;;;;;;;;5092008;28;20043;-55
2023/10/08 10:15:24;;;;;;;13.90;9.40;;;;;;;;;;5092111;28;20386;-57
2023/10/08 10:17:50;;;;;;;13.77;9.27;;;;;;;;;;5091899;28;20142;-57
2023/10/08 10:20:16;;;;;;;13.77;9.20;;;;;;;;;;5090945;28;20044;-59
2023/10/08 10:22:44;;;;;;;13.90;9.50;;;;;;;;;;5091999;28;20073;-57
2023/10/08 10:25:20;;;;;;;14.65;9.52;;;;;;;;;;5091873;28;20367;-58
2023/10/08 10:27:58;;;;;;;16.58;9.15;;;;;;;;;;5091630;28;20174;-53
2023/10/08 10:30:27;;;;;;;13.70;9.00;;;;;;;;;;5090713;28;20027;-58
2023/10/08 10:32:53;;;;;;;;;;;;;;;;;;5092028;28;20016;-57
2023/10/08 10:35:19;;;;;;;13.70;9.00;;;;;;;;;;5091393;28;19911;-57
2023/10/08 10:37:51;;;;;;;15.13;9.43;;;;;;;;;;5073500;28;20020;-56
2023/10/08 10:40:39;;;;;;;13.75;9.15;;;;;;;;;;5090557;28;20099;-57
2023/10/08 10:43:06;;;;;;;14.10;9.85;;;;;;;;;;5091617;28;20390;-56
2023/10/08 10:45:44;;;;;;;13.80;9.30;;;;;;;;;;5091374;28;20134;-54
2023/10/08 10:53:32;;;;;;;13.80;9.27;;;;;;;;;;5091210;28;20048;-57
2023/10/08 10:56:09;;;;;;;14.30;9.60;;;;;;;;;;5072001;28;20149;-57
2023/10/08 10:58:39;;;;;;;13.85;9.40;;;;;;;;;;5090989;28;20024;-56
2023/10/08 11:01:15;;;;;;;13.90;9.50;;;;;;;;;;5090224;28;20035;-57
2023/10/08 11:03:44;;;;;;;14.48;9.43;;;;;;;;;;5090450;28;20020;-53
2023/10/08 11:06:15;;;;;;;14.20;9.73;;;;;;;;;;5091450;28;20490;-57
2023/10/08 11:08:45;;;;;;;14.10;9.93;;;;;;;;;;5090921;28;20020;-63
2023/10/08 11:11:12;;;;;;;14.30;10.32;;;;;;;;;;5071861;28;20024;-59
2023/10/08 11:13:38;;;;;;;14.00;9.82;;;;;;;;;;5091017;28;20044;-60
2023/10/08 11:16:07;;;;;;;13.95;9.68;;;;;;;;;;5072861;28;20435;-60
2023/10/08 11:18:33;;;;;;;14.00;9.60;;;;;;;;;;5091053;28;20540;-62
2023/10/08 11:21:23;;;;;;;13.77;9.35;;;;;;;;;;5090790;28;20032;-58
2023/10/08 11:23:53;;;;;;;18.10;11.73;;;;;;;;;;5087326;28;20431;-60
2023/10/08 11:26:21;;;;;;;16.17;11.57;;;;;;;;;;5079778;28;20052;-62
2023/10/08 11:28:47;;;;;;;13.82;9.40;;;;;;;;;;5080881;28;20164;-64
2023/10/08 11:31:15;;;;;;;13.90;9.40;;;;;;;;;;5077656;28;20028;-62
2023/10/08 11:33:42;;;;;;;13.82;9.32;;;;;;;;;;5079801;28;20358;-63
2023/10/08 11:36:18;;;;;;;13.88;9.35;;;;;;;;;;5062888;28;20024;-62
2023/10/08 11:38:50;;;;;;;18.65;10.25;;;;;;;;;;5080982;28;20027;-60
2023/10/08 11:41:22;;;;;;;14.07;9.63;;;;;;;;;;5059584;28;20351;-63
2023/10/08 11:43:59;;;;;;;14.10;9.57;;;;;;;;;;5076748;28;20390;-62
2023/10/08 11:46:38;;;;;;;13.90;9.52;;;;;;;;;;5060291;28;20024;-61
2023/10/08 11:49:05;;;;;;;13.88;9.48;;;;;;;;;;5078510;28;20104;-56
2023/10/08 11:51:34;;;;;;;14.30;10.18;;;;;;;;;;5077942;28;20803;-60
2023/10/08 11:54:01;;;;;;;14.73;10.80;;;;;;;;;;5060781;28;20514;-62
2023/10/08 11:56:28;;;;;;;14.32;10.75;;;;;;;;;;5080378;28;20046;-63
2023/10/08 11:58:56;;;;;;;15.83;10.70;;;;;;;;;;5082299;28;20030;-63
2023/10/08 12:01:23;;;;;;;14.00;9.93;;;;;;;;;;5085446;28;20032;-63
2023/10/08 12:03:49;;;;;;;14.20;10.25;;;;;;;;;;5062257;28;20039;-61
2023/10/08 12:06:18;;;;;;;14.65;10.60;;;;;;;;;;5080650;28;20021;-64
2023/10/08 12:08:46;;;;;;;15.10;10.93;;;;;;;;;;5078913;28;20049;-63
2023/10/08 12:11:12;;;;;;;14.30;10.50;;;;;;;;;;5079380;28;20024;-60
2023/10/08 12:13:43;;;;;;;14.60;11.32;;;;;;;;;;5080174;28;20027;-63
2023/10/08 12:16:12;;;;;;;14.30;10.70;;;;;;;;;;5082427;28;20043;-62
2023/10/08 12:18:39;;;;;;;14.90;10.77;;;;;;;;;;5082374;28;20098;-62
2023/10/08 12:21:10;;;;;;;14.48;11.30;;;;;;;;;;5081149;28;20490;-59
2023/10/08 12:23:37;;;;;;;14.50;11.40;;;;;;;;;;5081444;28;20033;-62
2023/10/08 12:26:07;;;;;;;16.08;11.60;;;;;;;;;;5081749;28;20049;-63
2023/10/08 12:28:34;;;;;;;15.00;11.90;;;;;;;;;;5066194;28;20141;-63
2023/10/08 12:31:00;;;;;;;14.45;10.90;;;;;;;;;;5064385;28;20082;-61
2023/10/08 12:33:29;;;;;;;14.23;10.38;;;;;;;;;;5081693;28;20066;-63
2023/10/08 12:35:57;;;;;;;14.40;11.00;;;;;;;;;;5084582;28;20101;-64
2023/10/08 12:38:23;;;;;;;14.95;10.88;;;;;;;;;;5092912;28;20024;-64
2023/10/08 12:40:55;;;;;;;14.30;10.65;;;;;;;;;;5092844;28;20028;-62
2023/10/08 12:43:21;;;;;;;15.35;11.50;;;;;;;;;;5085251;28;20030;-64
2023/10/08 12:45:54;;;;;;;14.48;11.35;;;;;;;;;;5087082;28;20172;-63
2023/10/08 12:48:27;;;;;;;15.15;12.45;;;;;;;;;;5082343;28;20518;-63
2023/10/08 12:50:57;;;;;;;14.60;11.45;;;;;;;;;;5080160;28;20059;-63
2023/10/08 12:53:26;;;;;;;14.48;11.25;;;;;;;;;;5083673;28;20385;-64
2023/10/08 12:55:53;;;;;;;15.13;11.23;;;;;;;;;;5082054;28;20021;-63
2023/10/08 12:58:23;;;;;;;14.93;11.40;;;;;;;;;;5084641;28;20023;-64
2023/10/08 13:00:49;;;;;;;19.77;11.40;;;;;;;;;;5081087;28;20024;-62
2023/10/08 13:03:22;;;;;;;14.30;10.82;;;;;;;;;;5055058;28;20028;-63
2023/10/08 13:05:52;;;;;;;17.00;12.57;;;;;;;;;;5055013;28;20021;-63
2023/10/08 13:08:19;;;;;;;14.70;11.50;;;;;;;;;;5077675;28;20020;-64
2023/10/08 13:10:45;;;;;;;14.82;11.70;;;;;;;;;;5092681;28;20458;-63
2023/10/08 13:13:12;;;;;;;14.50;11.25;;;;;;;;;;5092871;28;20077;-64
2023/10/08 13:15:38;;;;;;;14.70;11.70;;;;;;;;;;5093006;28;20086;-63
2023/10/08 13:18:04;;;;;;;14.55;11.40;;;;;;;;;;5093060;28;20020;-63
2023/10/08 13:20:33;;;;;;;14.60;11.50;;;;;;;;;;5071841;28;20657;-63
2023/10/08 13:22:59;;;;;;;16.30;12.35;;;;;;;;;;5083484;28;20048;-64
2023/10/08 13:25:26;;;;;;;14.50;11.25;;;;;;;;;;5082570;28;20028;-64
2023/10/08 13:27:52;;;;;;;14.77;11.50;;;;;;;;;;4723314;28;10000426;-64
2023/10/08 13:30:20;;;;;;;14.50;11.27;;;;;;;;;;5080571;28;20059;-64
2023/10/08 13:32:46;;;;;;;14.50;11.20;;;;;;;;;;5074072;28;20063;-65
2023/10/08 13:35:12;;;;;;;14.60;11.60;;;;;;;;;;5053486;28;20454;-64
2023/10/08 13:37:39;;;;;;;14.40;10.90;;;;;;;;;;5079285;28;20069;-64
2023/10/08 13:40:06;;;;;;;15.00;11.32;;;;;;;;;;5088090;28;20024;-64
2023/10/08 13:42:32;;;;;;;15.05;12.38;;;;;;;;;;5088985;28;20509;-63
2023/10/08 13:44:59;;;;;;;14.60;11.50;;;;;;;;;;5086690;28;20063;-64
2023/10/08 13:47:25;;;;;;;14.60;11.38;;;;;;;;;;5085876;28;20024;-64
2023/10/08 13:49:54;;;;;;;14.32;10.85;;;;;;;;;;5088117;28;20027;-64
2023/10/08 13:52:21;;;;;;;14.48;11.20;;;;;;;;;;5088466;28;20039;-63
2023/10/08 13:54:51;;;;;;;14.63;11.20;;;;;;;;;;5088683;28;20035;-64
2023/10/08 13:57:19;;;;;;;14.40;11.10;;;;;;;;;;5083048;28;20028;-63
2023/10/08 13:59:46;;;;;;;14.30;10.80;;;;;;;;;;5068354;28;20013;-64
2023/10/08 14:02:15;;;;;;;14.43;11.10;;;;;;;;;;5067397;28;20025;-64
2023/10/08 14:04:44;;;;;;;15.98;11.50;;;;;;;;;;5087175;28;20032;-64
2023/10/08 14:07:18;;;;;;;14.38;10.88;;;;;;;;;;5088739;28;20023;-63
2023/10/08 14:09:45;;;;;;;14.23;10.63;;;;;;;;;;5070949;28;20028;-63
2023/10/08 14:12:13;;;;;;;15.00;11.65;;;;;;;;;;5067688;28;20027;-63
2023/10/08 14:14:46;;;;;;;16.77;11.40;;;;;;;;;;5049613;28;20048;-63
2023/10/08 14:17:15;;;;;;;14.20;10.40;;;;;;;;;;5068397;28;20122;-63
2023/10/08 14:19:51;;;;;;;14.13;10.30;;;;;;;;;;5050095;28;20028;-63
2023/10/08 14:22:21;;;;;;;14.60;11.02;;;;;;;;;;5067380;28;20490;-63
2023/10/08 14:24:58;;;;;;;14.35;10.80;;;;;;;;;;5071712;28;20025;-63
2023/10/08 14:27:31;;;;;;;14.38;10.57;;;;;;;;;;5073339;28;20040;-63
2023/10/08 14:30:00;;;;;;;14.23;10.50;;;;;;;;;;5050959;28;20033;-63
2023/10/08 14:32:27;;;;;;;14.50;10.65;;;;;;;;;;5067464;28;20063;-64
2023/10/08 14:42:55;;;;;;;14.10;10.20;;;;;;;;;;5067846;28;20082;-64
2023/10/08 14:45:22;;;;;;;14.13;10.27;;;;;;;;;;5069007;28;20023;-65
2023/10/08 14:47:48;;;;;;;14.18;10.20;;;;;;;;;;5052190;28;20390;-61
2023/10/08 14:50:18;;;;;;;14.80;11.25;;;;;;;;;;4721852;28;10000553;-63
2023/10/08 14:52:44;;;;;;;14.40;10.75;;;;;;;;;;5069614;28;20081;-63
2023/10/08 14:55:13;;;;;;;14.18;10.35;;;;;;;;;;5087692;28;20028;-62
2023/10/08 14:57:39;;;;;;;14.10;10.10;;;;;;;;;;5069568;28;20402;-63
2023/10/08 15:00:09;;;;;;;14.07;10.10;;;;;;;;;;5087144;28;20035;-64
2023/10/08 15:02:37;;;;;;;14.07;9.95;;;;;;;;;;5087065;28;20031;-63
2023/10/08 15:05:05;;;;;;;14.73;11.02;;;;;;;;;;5087922;28;20131;-63
2023/10/08 15:07:34;;;;;;;14.10;10.00;;;;;;;;;;5088078;28;20107;-64
2023/10/08 15:10:00;;;;;;;14.18;10.40;;;;;;;;;;5066976;28;20029;-64
2023/10/08 15:12:34;;;;;;;14.10;10.10;;;;;;;;;;5067162;28;20119;-62
2023/10/08 15:15:00;;;;;;;14.10;10.07;;;;;;;;;;5067295;28;20017;-61
2023/10/08 15:17:26;;;;;;;13.95;9.80;;;;;;;;;;5067558;28;20069;-62
2023/10/08 15:19:56;;;;;;;14.05;9.98;;;;;;;;;;5066705;28;20034;-63
2023/10/08 15:22:22;;;;;;;14.00;10.00;;;;;;;;;;5062855;28;20123;-64
2023/10/08 15:24:48;;;;;;;13.90;9.60;;;;;;;;;;5074905;28;20131;-64
2023/10/08 15:27:15;;;;;;;13.93;9.70;;;;;;;;;;5062338;28;20024;-65
2023/10/08 15:29:41;;;;;;;13.80;9.30;;;;;;;;;;5076915;28;20520;-64
2023/10/08 15:32:07;;;;;;;13.80;9.30;;;;;;;;;;5081471;28;20024;-62
2023/10/08 15:34:33;;;;;;;17.77;10.05;;;;;;;;;;5068915;28;20398;-63
2023/10/08 15:36:59;;;;;;;13.88;9.40;;;;;;;;;;5071437;28;20051;-63
2023/10/08 15:39:28;;;;;;;14.30;9.60;;;;;;;;;;5067287;28;20099;-62
2023/10/08 15:41:55;;;;;;;14.60;10.00;;;;;;;;;;5074936;28;20448;-64
2023/10/08 15:44:21;;;;;;;14.20;9.80;;;;;;;;;;5069388;28;20036;-63
2023/10/08 15:46:47;;;;;;;13.88;9.35;;;;;;;;;;5086916;28;20446;-63
2023/10/08 15:49:13;;;;;;;13.95;9.35;;;;;;;;;;5049753;28;20472;-63
2023/10/08 15:51:40;;;;;;;13.85;9.32;;;;;;;;;;5073291;28;20051;-61
2023/10/08 15:54:06;;;;;;;13.90;9.60;;;;;;;;;;5081557;28;20027;-64
2023/10/08 15:56:32;;;;;;;13.82;9.40;;;;;;;;;;5083928;28;20031;-63
2023/10/08 15:58:59;;;;;;;13.90;9.50;;;;;;;;;;5087039;28;20053;-62
2023/10/08 16:01:26;;;;;;;15.30;11.10;;;;;;;;;;5085603;28;20024;-63
2023/10/08 16:03:52;;;;;;;13.93;9.57;;;;;;;;;;5062203;28;20029;-62